createdAt,value
2016-12-22T00:00:46.938Z,91.2
2016-12-22T00:01:47.254Z,91.2
2016-12-22T00:02:47.254Z,91.01
2016-12-22T00:03:47.254Z,90.82
2016-12-22T00:04:47.239Z,91.58
2016-12-22T00:05:47.235Z,91.58
2016-12-22T00:06:47.235Z,91.58
2016-12-22T00:07:47.231Z,91.67
2016-12-22T00:08:47.227Z,91.77
2016-12-22T00:09:47.218Z,91.48
2016-12-22T00:10:47.222Z,91.77
2016-12-22T00:11:47.216Z,91.48
2016-12-22T00:12:46.879Z,91.48
2016-12-22T00:13:47.199Z,91.67
2016-12-22T00:14:46.875Z,91.48
2016-12-22T00:15:47.191Z,91.58
2016-12-22T00:16:47.191Z,91.58
2016-12-22T00:17:47.183Z,91.58
2016-12-22T00:18:47.179Z,91.58
2016-12-22T00:19:47.179Z,91.96
2016-12-22T00:20:47.176Z,91.48
2016-12-22T00:21:47.167Z,91.48
2016-12-22T00:22:47.167Z,91.48
2016-12-22T00:23:47.163Z,91.77
2016-12-22T00:24:46.832Z,91.58
2016-12-22T00:25:46.826Z,91.39
2016-12-22T00:26:46.819Z,91.67
2016-12-22T00:27:46.816Z,91.67
2016-12-22T00:28:47.140Z,91.48
2016-12-22T00:29:47.132Z,91.58
2016-12-22T00:30:47.129Z,91.58
2016-12-22T00:31:47.129Z,91.77
2016-12-22T00:32:47.120Z,91.58
2016-12-22T00:33:47.119Z,91.48
2016-12-22T00:34:47.108Z,91.48
2016-12-22T00:35:47.105Z,91.77
2016-12-22T00:36:46.772Z,91.58
2016-12-22T00:37:47.100Z,91.77
2016-12-22T00:38:46.772Z,92.05
2016-12-22T00:39:47.096Z,91.86
2016-12-22T00:40:47.088Z,92
2016-12-22T00:41:47.076Z,92.05
2016-12-22T00:42:47.080Z,92.52
2016-12-22T00:43:47.081Z,91.53
2016-12-22T00:44:47.068Z,91.43
2016-12-22T00:45:47.064Z,92.66
2016-12-22T00:46:47.068Z,92.1
2016-12-22T00:47:47.057Z,92.19
2016-12-22T00:48:47.056Z,92.1
2016-12-22T00:49:46.720Z,92.19
2016-12-22T00:50:46.717Z,92.1
2016-12-22T00:51:46.712Z,92.1
2016-12-22T00:52:47.040Z,92.29
2016-12-22T00:53:47.057Z,92.33
2016-12-22T00:54:47.029Z,92.1
2016-12-22T00:55:47.024Z,92.9
2016-12-22T00:56:47.029Z,92.24
2016-12-22T00:57:47.009Z,92
2016-12-22T00:58:47.005Z,91.86
2016-12-22T00:59:47.005Z,92.1
2016-12-22T01:00:46.676Z,92
2016-12-22T01:01:46.681Z,92
2016-12-22T01:02:46.669Z,92.29
2016-12-22T01:03:46.985Z,92.1
2016-12-22T01:04:46.657Z,92.38
2016-12-22T01:05:46.981Z,92.38
2016-12-22T01:06:46.653Z,92
2016-12-22T01:07:46.974Z,92.1
2016-12-22T01:08:46.973Z,92.38
2016-12-22T01:09:46.965Z,92.38
2016-12-22T01:10:46.958Z,92.1
2016-12-22T01:11:46.625Z,92.1
2016-12-22T01:12:46.622Z,92.1
2016-12-22T01:13:46.617Z,92.19
2016-12-22T01:14:46.937Z,92.1
2016-12-22T01:15:46.950Z,92.1
2016-12-22T01:16:46.938Z,92
2016-12-22T01:17:46.929Z,92.71
2016-12-22T01:18:46.926Z,91.81
2016-12-22T01:19:46.918Z,92.05
2016-12-22T01:20:46.918Z,92.52
2016-12-22T01:21:46.582Z,92.05
2016-12-22T01:22:46.578Z,92.61
2016-12-22T01:23:46.578Z,92.05
2016-12-22T01:24:46.890Z,92.24
2016-12-22T01:25:46.566Z,92.24
2016-12-22T01:26:46.886Z,92.43
2016-12-22T01:27:46.882Z,92.33
2016-12-22T01:28:46.882Z,92.33
2016-12-22T01:29:46.882Z,92.24
2016-12-22T01:30:46.870Z,92.14
2016-12-22T01:31:46.542Z,92.33
2016-12-22T01:32:46.866Z,92.43
2016-12-22T01:33:46.860Z,92.33
2016-12-22T01:34:46.854Z,92.33
2016-12-22T01:35:46.850Z,92.24
2016-12-22T01:36:46.850Z,92.24
2016-12-22T01:37:46.843Z,92.14
2016-12-22T01:38:46.843Z,92.33
2016-12-22T01:39:46.839Z,92.24
2016-12-22T01:40:46.831Z,92.05
2016-12-22T01:41:46.830Z,92.24
2016-12-22T01:42:46.498Z,92.05
2016-12-22T01:43:46.811Z,92.24
2016-12-22T01:44:46.815Z,92.24
2016-12-22T01:45:46.811Z,92.14
2016-12-22T01:46:46.807Z,92.14
2016-12-22T01:47:46.795Z,92.43
2016-12-22T01:48:46.791Z,92.43
2016-12-22T01:49:46.787Z,92.33
2016-12-22T01:50:46.787Z,91.77
2016-12-22T01:51:46.464Z,92.24
2016-12-22T01:52:46.455Z,92.14
2016-12-22T01:53:46.775Z,92.14
2016-12-22T01:54:46.767Z,91.96
2016-12-22T01:55:46.763Z,92.24
2016-12-22T01:56:46.763Z,92.14
2016-12-22T01:57:46.755Z,92.33
2016-12-22T01:58:46.751Z,92.33
2016-12-22T01:59:46.756Z,92.24
2016-12-22T02:00:46.423Z,92.33
2016-12-22T02:01:46.411Z,92.14
2016-12-22T02:02:46.735Z,92.14
2016-12-22T02:03:46.733Z,92.33
2016-12-22T02:04:46.724Z,92.43
2016-12-22T02:05:46.400Z,92.24
2016-12-22T02:06:46.712Z,91.58
2016-12-22T02:07:46.719Z,91.58
2016-12-22T02:08:46.383Z,92.24
2016-12-22T02:09:46.376Z,91.48
2016-12-22T02:10:46.700Z,91.58
2016-12-22T02:11:46.696Z,92.14
2016-12-22T02:12:46.688Z,92.33
2016-12-22T02:13:46.692Z,91.39
2016-12-22T02:14:46.352Z,92.43
2016-12-22T02:15:46.684Z,92.24
2016-12-22T02:16:46.676Z,92.24
2016-12-22T02:17:46.340Z,92.24
2016-12-22T02:18:46.336Z,92.05
2016-12-22T02:19:46.336Z,92.24
2016-12-22T02:20:46.328Z,91.96
2016-12-22T02:21:46.656Z,91.96
2016-12-22T02:22:46.644Z,92.05
2016-12-22T02:23:46.644Z,92.14
2016-12-22T02:24:46.637Z,92.14
2016-12-22T02:25:46.632Z,91.86
2016-12-22T02:26:46.624Z,92.24
2016-12-22T02:27:46.625Z,92.24
2016-12-22T02:28:46.296Z,92.14
2016-12-22T02:29:46.288Z,92.14
2016-12-22T02:30:46.608Z,92.24
2016-12-22T02:31:46.604Z,92.14
2016-12-22T02:32:46.612Z,91.77
2016-12-22T02:33:46.604Z,92.14
2016-12-22T02:34:46.596Z,92.14
2016-12-22T02:35:46.593Z,92.14
2016-12-22T02:36:46.589Z,91.86
2016-12-22T02:37:46.253Z,92.05
2016-12-22T02:38:46.253Z,91.96
2016-12-22T02:39:46.253Z,92.61
2016-12-22T02:40:46.561Z,91.86
2016-12-22T02:41:46.566Z,91.86
2016-12-22T02:42:46.565Z,91.86
2016-12-22T02:43:46.561Z,91.77
2016-12-22T02:44:46.553Z,92.05
2016-12-22T02:45:46.545Z,91.86
2016-12-22T02:46:46.545Z,92.33
2016-12-22T02:47:46.208Z,92.33
2016-12-22T02:48:46.205Z,91.86
2016-12-22T02:49:46.208Z,91.86
2016-12-22T02:50:46.521Z,92.14
2016-12-22T02:51:46.516Z,92.14
2016-12-22T02:52:46.524Z,92.14
2016-12-22T02:53:46.512Z,92.14
2016-12-22T02:54:46.508Z,92.14
2016-12-22T02:55:46.504Z,91.77
2016-12-22T02:56:46.504Z,92.05
2016-12-22T02:57:46.496Z,91.86
2016-12-22T02:58:46.160Z,91.86
2016-12-22T02:59:46.488Z,91.86
2016-12-22T03:00:46.155Z,91.86
2016-12-22T03:01:46.628Z,91.86
2016-12-22T03:02:46.470Z,91.86
2016-12-22T03:03:46.468Z,92.52
2016-12-22T03:04:46.460Z,92.14
2016-12-22T03:05:46.460Z,92.05
2016-12-22T03:06:46.456Z,92.24
2016-12-22T03:07:46.448Z,92.05
2016-12-22T03:08:46.445Z,92.24
2016-12-22T03:09:46.124Z,92.61
2016-12-22T03:10:46.112Z,92.14
2016-12-22T03:11:46.684Z,92.43
2016-12-22T03:12:46.452Z,92.05
2016-12-22T03:13:46.421Z,92.33
2016-12-22T03:14:46.428Z,92.52
2016-12-22T03:15:46.416Z,92.33
2016-12-22T03:16:46.413Z,92.33
2016-12-22T03:17:46.410Z,92.14
2016-12-22T03:18:46.402Z,92.52
2016-12-22T03:19:46.068Z,92.14
2016-12-22T03:20:46.068Z,92.14
2016-12-22T03:21:46.070Z,92.9
2016-12-22T03:22:46.385Z,92.24
2016-12-22T03:23:46.384Z,91.86
2016-12-22T03:24:46.376Z,92.71
2016-12-22T03:25:46.376Z,92.52
2016-12-22T03:26:46.369Z,92.24
2016-12-22T03:27:46.364Z,92.05
2016-12-22T03:28:46.037Z,92.52
2016-12-22T03:29:46.353Z,92.05
2016-12-22T03:30:46.028Z,91.77
2016-12-22T03:31:46.345Z,91.86
2016-12-22T03:32:46.369Z,92.24
2016-12-22T03:33:46.336Z,92.52
2016-12-22T03:34:46.333Z,92.61
2016-12-22T03:35:46.333Z,92.33
2016-12-22T03:36:45.996Z,92.24
2016-12-22T03:37:45.993Z,92.71
2016-12-22T03:38:46.316Z,92.71
2016-12-22T03:39:46.305Z,92.52
2016-12-22T03:40:46.312Z,92.52
2016-12-22T03:41:46.305Z,92.14
2016-12-22T03:42:46.304Z,92.43
2016-12-22T03:43:46.292Z,92.33
2016-12-22T03:44:46.288Z,92.61
2016-12-22T03:45:45.960Z,92.43
2016-12-22T03:46:46.280Z,92.8
2016-12-22T03:47:46.272Z,92.52
2016-12-22T03:48:46.268Z,92.33
2016-12-22T03:49:46.276Z,92.43
2016-12-22T03:50:46.260Z,92.61
2016-12-22T03:51:46.260Z,92.43
2016-12-22T03:52:45.928Z,92.61
2016-12-22T03:53:45.924Z,92.61
2016-12-22T03:54:45.920Z,92.52
2016-12-22T03:55:46.248Z,92.9
2016-12-22T03:56:46.227Z,92.52
2016-12-22T03:57:45.904Z,92.9
2016-12-22T03:58:45.900Z,93.18
2016-12-22T03:59:46.228Z,92.52
2016-12-22T04:00:46.224Z,92.71
2016-12-22T04:01:46.212Z,92.99
2016-12-22T04:02:46.218Z,93.28
2016-12-22T04:03:46.200Z,92.8
2016-12-22T04:04:46.196Z,93.09
2016-12-22T04:05:45.876Z,93.37
2016-12-22T04:06:46.200Z,93.37
2016-12-22T04:07:46.192Z,93.37
2016-12-22T04:08:46.188Z,92.8
2016-12-22T04:09:45.856Z,93.28
2016-12-22T04:10:45.852Z,93.28
2016-12-22T04:11:46.169Z,92.9
2016-12-22T04:12:46.172Z,93.09
2016-12-22T04:13:46.168Z,93.47
2016-12-22T04:14:46.153Z,93.09
2016-12-22T04:15:46.148Z,93.56
2016-12-22T04:16:46.145Z,93.18
2016-12-22T04:17:45.813Z,93.09
2016-12-22T04:18:45.817Z,93.47
2016-12-22T04:19:45.813Z,92.9
2016-12-22T04:20:46.129Z,92.8
2016-12-22T04:21:46.133Z,93.66
2016-12-22T04:22:46.125Z,92.99
2016-12-22T04:23:46.117Z,93.56
2016-12-22T04:24:45.793Z,93.56
2016-12-22T04:25:45.777Z,93.09
2016-12-22T04:26:45.781Z,93.09
2016-12-22T04:27:46.093Z,93.09
2016-12-22T04:28:46.101Z,92.8
2016-12-22T04:29:46.093Z,92.9
2016-12-22T04:30:45.761Z,92.9
2016-12-22T04:31:46.093Z,92.9
2016-12-22T04:32:46.085Z,92.99
2016-12-22T04:33:46.281Z,92.9
2016-12-22T04:34:46.073Z,92.99
2016-12-22T04:35:45.742Z,92.8
2016-12-22T04:36:46.058Z,92.9
2016-12-22T04:37:46.061Z,92.9
2016-12-22T04:38:46.053Z,93.66
2016-12-22T04:39:46.057Z,92.9
2016-12-22T04:40:46.049Z,93.09
2016-12-22T04:41:46.038Z,92.9
2016-12-22T04:42:46.033Z,93.28
2016-12-22T04:43:45.705Z,92.9
2016-12-22T04:44:46.030Z,93.66
2016-12-22T04:45:45.702Z,93.47
2016-12-22T04:46:46.026Z,92.71
2016-12-22T04:47:46.014Z,93.28
2016-12-22T04:48:46.006Z,92.99
2016-12-22T04:49:46.010Z,92.8
2016-12-22T04:50:46.002Z,92.9
2016-12-22T04:51:45.673Z,92.9
2016-12-22T04:52:45.998Z,93.66
2016-12-22T04:53:45.994Z,92.99
2016-12-22T04:54:45.986Z,93.09
2016-12-22T04:55:45.982Z,92.9
2016-12-22T04:56:45.978Z,92.99
2016-12-22T04:57:45.971Z,92.71
2016-12-22T04:58:45.638Z,92.71
2016-12-22T04:59:45.639Z,93.18
2016-12-22T05:00:45.952Z,92.99
2016-12-22T05:01:45.961Z,92.9
2016-12-22T05:02:45.955Z,93.47
2016-12-22T05:03:45.946Z,92.9
2016-12-22T05:04:45.946Z,93.18
2016-12-22T05:05:45.931Z,93.47
2016-12-22T05:06:45.603Z,93.37
2016-12-22T05:07:45.603Z,93.28
2016-12-22T05:08:45.591Z,93.09
2016-12-22T05:09:45.919Z,93.37
2016-12-22T05:10:45.911Z,93.37
2016-12-22T05:11:45.915Z,93.09
2016-12-22T05:12:45.911Z,93.47
2016-12-22T05:13:45.899Z,93.47
2016-12-22T05:14:45.571Z,93.09
2016-12-22T05:15:45.927Z,93.37
2016-12-22T05:16:45.563Z,93.66
2016-12-22T05:17:45.560Z,93.37
2016-12-22T05:18:45.884Z,94.04
2016-12-22T05:19:45.876Z,94.04
2016-12-22T05:20:45.880Z,93.28
2016-12-22T05:21:45.884Z,93.66
2016-12-22T05:22:45.535Z,93.75
2016-12-22T05:23:45.536Z,93.75
2016-12-22T05:24:45.524Z,93.66
2016-12-22T05:25:45.852Z,93.66
2016-12-22T05:26:45.852Z,93.28
2016-12-22T05:27:45.988Z,93.75
2016-12-22T05:28:45.840Z,93.47
2016-12-22T05:29:45.832Z,93.09
2016-12-22T05:30:45.828Z,93.47
2016-12-22T05:31:45.500Z,94.04
2016-12-22T05:32:45.828Z,93.66
2016-12-22T05:33:45.821Z,93.37
2016-12-22T05:34:45.809Z,94.04
2016-12-22T05:35:45.812Z,94.04
2016-12-22T05:36:45.805Z,94.13
2016-12-22T05:37:45.796Z,93.75
2016-12-22T05:38:45.469Z,94.13
2016-12-22T05:39:45.465Z,94.32
2016-12-22T05:40:45.461Z,93.75
2016-12-22T05:41:45.781Z,93.85
2016-12-22T05:42:46.025Z,93.85
2016-12-22T05:43:45.773Z,93.75
2016-12-22T05:44:45.769Z,93.85
2016-12-22T05:45:45.433Z,93.94
2016-12-22T05:46:45.433Z,93.85
2016-12-22T05:47:45.753Z,94.04
2016-12-22T05:48:45.749Z,93.75
2016-12-22T05:49:45.417Z,93.85
2016-12-22T05:50:45.741Z,93.75
2016-12-22T05:51:45.741Z,93.85
2016-12-22T05:52:45.406Z,93.47
2016-12-22T05:53:45.397Z,93.94
2016-12-22T05:54:45.394Z,93.56
2016-12-22T05:55:45.749Z,94.23
2016-12-22T05:56:45.389Z,93.56
2016-12-22T05:57:45.707Z,93.66
2016-12-22T05:58:45.706Z,94.04
2016-12-22T05:59:45.712Z,93.56
2016-12-22T06:00:45.374Z,93.66
2016-12-22T06:01:45.369Z,93.94
2016-12-22T06:02:45.690Z,94.13
2016-12-22T06:03:45.686Z,93.75
2016-12-22T06:04:45.686Z,93.94
2016-12-22T06:05:45.674Z,94.42
2016-12-22T06:06:45.674Z,93.75
2016-12-22T06:07:45.662Z,94.32
2016-12-22T06:08:45.334Z,93.85
2016-12-22T06:09:45.662Z,93.85
2016-12-22T06:10:45.330Z,94.04
2016-12-22T06:11:45.327Z,94.04
2016-12-22T06:12:45.904Z,94.32
2016-12-22T06:13:45.646Z,93.85
2016-12-22T06:14:45.635Z,93.94
2016-12-22T06:15:45.634Z,93.75
2016-12-22T06:16:45.303Z,93.66
2016-12-22T06:17:45.631Z,93.56
2016-12-22T06:18:45.623Z,93.66
2016-12-22T06:19:45.615Z,93.37
2016-12-22T06:20:45.287Z,93.37
2016-12-22T06:21:45.278Z,94.13
2016-12-22T06:22:45.275Z,93.75
2016-12-22T06:23:45.267Z,93.94
2016-12-22T06:24:45.604Z,93.75
2016-12-22T06:25:45.587Z,94.89
2016-12-22T06:26:45.591Z,93.94
2016-12-22T06:27:45.587Z,94.89
2016-12-22T06:28:45.579Z,94.23
2016-12-22T06:29:45.576Z,93.94
2016-12-22T06:30:45.244Z,94.04
2016-12-22T06:31:45.236Z,93.85
2016-12-22T06:32:45.231Z,94.6
2016-12-22T06:33:45.548Z,94.51
2016-12-22T06:34:45.551Z,94.23
2016-12-22T06:35:45.548Z,94.23
2016-12-22T06:36:45.548Z,94.32
2016-12-22T06:37:45.540Z,94.13
2016-12-22T06:38:45.540Z,94.51
2016-12-22T06:39:45.200Z,94.32
2016-12-22T06:40:45.516Z,94.13
2016-12-22T06:41:45.516Z,94.32
2016-12-22T06:42:45.764Z,94.13
2016-12-22T06:43:45.512Z,94.32
2016-12-22T06:44:45.508Z,94.04
2016-12-22T06:45:45.181Z,93.94
2016-12-22T06:46:45.508Z,93.94
2016-12-22T06:47:45.497Z,94.51
2016-12-22T06:48:45.501Z,93.94
2016-12-22T06:49:45.480Z,94.6
2016-12-22T06:50:45.149Z,93.94
2016-12-22T06:51:45.477Z,94.6
2016-12-22T06:52:45.477Z,94.7
2016-12-22T06:53:45.466Z,93.85
2016-12-22T06:54:45.465Z,94.6
2016-12-22T06:55:45.129Z,93.75
2016-12-22T06:56:45.129Z,93.94
2016-12-22T06:57:45.449Z,94.6
2016-12-22T06:58:45.441Z,94.04
2016-12-22T06:59:45.437Z,94.6
2016-12-22T07:00:45.114Z,94.04
2016-12-22T07:01:45.429Z,94.04
2016-12-22T07:02:45.429Z,94.13
2016-12-22T07:03:45.425Z,94.13
2016-12-22T07:04:45.418Z,94.6
2016-12-22T07:05:45.082Z,93.94
2016-12-22T07:06:45.410Z,93.94
2016-12-22T07:07:45.402Z,93.94
2016-12-22T07:08:45.410Z,94.13
2016-12-22T07:09:45.074Z,94.13
2016-12-22T07:10:45.062Z,93.94
2016-12-22T07:11:45.386Z,93.66
2016-12-22T07:12:45.638Z,94.79
2016-12-22T07:13:45.378Z,94.13
2016-12-22T07:14:45.046Z,93.94
2016-12-22T07:15:45.046Z,94.51
2016-12-22T07:16:45.366Z,94.32
2016-12-22T07:17:45.368Z,94.51
2016-12-22T07:18:45.358Z,93.94
2016-12-22T07:19:45.354Z,94.04
2016-12-22T07:20:45.023Z,94.13
2016-12-22T07:21:45.339Z,94.13
2016-12-22T07:22:45.339Z,93.94
2016-12-22T07:23:45.019Z,93.66
2016-12-22T07:24:45.007Z,93.94
2016-12-22T07:25:45.326Z,93.37
2016-12-22T07:26:45.330Z,93.47
2016-12-22T07:27:45.467Z,93.94
2016-12-22T07:28:45.319Z,93.94
2016-12-22T07:29:45.319Z,93.75
2016-12-22T07:30:45.303Z,93.94
2016-12-22T07:31:45.299Z,93.94
2016-12-22T07:32:45.291Z,94.32
2016-12-22T07:33:44.971Z,93.75
2016-12-22T07:34:44.959Z,93.94
2016-12-22T07:35:45.287Z,93.75
2016-12-22T07:36:45.282Z,93.37
2016-12-22T07:37:45.271Z,93.56
2016-12-22T07:38:44.939Z,93.75
2016-12-22T07:39:45.259Z,93.85
2016-12-22T07:40:45.259Z,94.04
2016-12-22T07:41:45.259Z,94.13
2016-12-22T07:42:45.503Z,93.75
2016-12-22T07:43:44.919Z,93.75
2016-12-22T07:44:44.919Z,93.18
2016-12-22T07:45:45.247Z,93.94
2016-12-22T07:46:44.911Z,94.13
2016-12-22T07:47:45.231Z,93.37
2016-12-22T07:48:45.231Z,94.32
2016-12-22T07:49:44.896Z,94.04
2016-12-22T07:50:45.219Z,94.04
2016-12-22T07:51:45.223Z,94.23
2016-12-22T07:52:45.207Z,93.47
2016-12-22T07:53:45.203Z,93.66
2016-12-22T07:54:44.875Z,93.09
2016-12-22T07:55:45.198Z,93.47
2016-12-22T07:56:44.867Z,93.09
2016-12-22T07:57:45.179Z,92.99
2016-12-22T07:58:45.180Z,93.28
2016-12-22T07:59:44.847Z,93.85
2016-12-22T08:00:45.178Z,93.09
2016-12-22T08:01:45.166Z,92.8
2016-12-22T08:02:45.170Z,93.47
2016-12-22T08:03:45.158Z,92.99
2016-12-22T08:04:45.162Z,92.99
2016-12-22T08:05:45.150Z,93.37
2016-12-22T08:06:44.822Z,92.9
2016-12-22T08:07:45.290Z,92.61
2016-12-22T08:08:45.137Z,93.09
2016-12-22T08:09:45.134Z,92.71
2016-12-22T08:10:45.126Z,92.99
2016-12-22T08:11:44.794Z,93.66
2016-12-22T08:12:44.794Z,92.8
2016-12-22T08:13:45.118Z,93.18
2016-12-22T08:14:45.114Z,93.37
2016-12-22T08:15:45.110Z,92.52
2016-12-22T08:16:45.098Z,92.52
2016-12-22T08:17:45.093Z,92.52
2016-12-22T08:18:44.765Z,92.61
2016-12-22T08:19:45.089Z,92.52
2016-12-22T08:20:45.077Z,92.71
2016-12-22T08:21:44.754Z,92.71
2016-12-22T08:22:45.077Z,92.43
2016-12-22T08:23:45.073Z,92.43
2016-12-22T08:24:45.069Z,92.61
2016-12-22T08:25:45.060Z,92.43
2016-12-22T08:26:45.056Z,92.61
2016-12-22T08:27:45.056Z,92.52
2016-12-22T08:28:45.045Z,92.14
2016-12-22T08:29:45.040Z,92.24
2016-12-22T08:30:45.044Z,91.96
2016-12-22T08:31:45.028Z,92.19
2016-12-22T08:32:44.707Z,92.19
2016-12-22T08:33:45.028Z,92.24
2016-12-22T08:34:45.023Z,91.58
2016-12-22T08:35:45.019Z,91.29
2016-12-22T08:36:45.011Z,91.86
2016-12-22T08:37:45.007Z,91.72
2016-12-22T08:38:45.003Z,91.34
2016-12-22T08:39:44.991Z,91.43
2016-12-22T08:40:44.995Z,91.81
2016-12-22T08:41:44.987Z,92.19
2016-12-22T08:42:44.987Z,91.53
2016-12-22T08:43:44.983Z,91.62
2016-12-22T08:44:44.975Z,91.24
2016-12-22T08:45:44.642Z,91.05
2016-12-22T08:46:44.642Z,91.53
2016-12-22T08:47:44.634Z,91.05
2016-12-22T08:48:44.626Z,90.86
2016-12-22T08:49:44.954Z,90.77
2016-12-22T08:50:44.622Z,90.67
2016-12-22T08:51:44.941Z,90.86
2016-12-22T08:52:44.938Z,91.05
2016-12-22T08:53:44.936Z,91.05
2016-12-22T08:54:44.930Z,90.96
2016-12-22T08:55:44.930Z,90.96
2016-12-22T08:56:44.918Z,90.67
2016-12-22T08:57:44.926Z,90.58
2016-12-22T08:58:44.910Z,90.77
2016-12-22T08:59:44.910Z,90.48
2016-12-22T09:00:44.902Z,90.48
2016-12-22T09:01:44.899Z,90.48
2016-12-22T09:02:44.898Z,90.01
2016-12-22T09:03:44.891Z,89.92
2016-12-22T09:04:44.883Z,90.11
2016-12-22T09:05:44.879Z,90.39
2016-12-22T09:06:44.551Z,90.01
2016-12-22T09:07:44.875Z,89.73
2016-12-22T09:08:44.871Z,89.82
2016-12-22T09:09:44.871Z,89.35
2016-12-22T09:10:44.859Z,90.2
2016-12-22T09:11:44.863Z,89.35
2016-12-22T09:12:44.851Z,89.44
2016-12-22T09:13:44.521Z,89.25
2016-12-22T09:14:44.839Z,89.25
2016-12-22T09:15:44.844Z,88.87
2016-12-22T09:16:44.520Z,88.31
2016-12-22T09:19:44.713Z,88.31
2016-12-22T09:21:54.719Z,88.21
2016-12-22T09:22:54.387Z,88.4
2016-12-22T09:23:54.708Z,88.21
2016-12-22T09:24:54.696Z,88.54
2016-12-22T09:25:54.700Z,88.59
2016-12-22T09:26:54.696Z,88.07
2016-12-22T09:27:54.360Z,88.35
2016-12-22T09:28:54.689Z,87.88
2016-12-22T09:29:54.780Z,88.07
2016-12-22T09:30:54.680Z,87.5
2016-12-22T09:31:54.681Z,87.69
2016-12-22T09:32:54.337Z,87.4
2016-12-22T09:33:54.333Z,87.21
2016-12-22T09:34:54.665Z,87.12
2016-12-22T09:35:54.653Z,86.74
2016-12-22T09:36:54.653Z,87.12
2016-12-22T09:37:54.650Z,87.12
2016-12-22T09:38:54.322Z,87.31
2016-12-22T09:39:54.640Z,86.74
2016-12-22T09:40:54.638Z,86.74
2016-12-22T09:41:54.630Z,86.83
2016-12-22T09:42:54.634Z,86.83
2016-12-22T09:43:54.618Z,87.12
2016-12-22T09:44:54.618Z,86.74
2016-12-22T09:45:54.619Z,86.74
2016-12-22T09:46:54.286Z,86.74
2016-12-22T09:47:54.607Z,86.74
2016-12-22T09:48:54.275Z,86.93
2016-12-22T09:49:54.751Z,87.12
2016-12-22T09:50:54.271Z,86.93
2016-12-22T09:51:54.598Z,87.12
2016-12-22T09:52:54.587Z,86.83
2016-12-22T09:53:54.583Z,86.74
2016-12-22T09:54:54.580Z,86.65
2016-12-22T09:55:54.252Z,86.74
2016-12-22T09:56:54.247Z,86.46
2016-12-22T09:57:54.567Z,86.55
2016-12-22T09:58:54.563Z,86.83
2016-12-22T09:59:54.552Z,85.99
2016-12-22T10:00:54.228Z,86.08
2016-12-22T10:01:54.228Z,86.27
2016-12-22T10:02:54.552Z,86.27
2016-12-22T10:03:54.552Z,86.36
2016-12-22T10:04:54.220Z,85.8
2016-12-22T10:05:54.532Z,85.7
2016-12-22T10:06:54.548Z,85.89
2016-12-22T10:07:54.545Z,85.61
2016-12-22T10:08:54.200Z,86.08
2016-12-22T10:09:54.521Z,85.99
2016-12-22T10:10:54.517Z,85.89
2016-12-22T10:11:54.509Z,85.42
2016-12-22T10:12:54.529Z,85.7
2016-12-22T10:13:54.505Z,86.46
2016-12-22T10:14:54.501Z,85.7
2016-12-22T10:15:54.497Z,85.61
2016-12-22T10:16:54.501Z,85.46
2016-12-22T10:17:54.489Z,85.08
2016-12-22T10:18:54.482Z,85.36
2016-12-22T10:19:54.486Z,85.36
2016-12-22T10:20:54.474Z,84.99
2016-12-22T10:21:54.474Z,84.8
2016-12-22T10:22:54.473Z,84.89
2016-12-22T10:23:54.138Z,84.99
2016-12-22T10:24:54.466Z,84.51
2016-12-22T10:25:54.465Z,84.23
2016-12-22T10:26:54.137Z,84.42
2016-12-22T10:27:54.447Z,83.75
2016-12-22T10:28:54.451Z,83.85
2016-12-22T10:29:54.119Z,83.56
2016-12-22T10:30:54.447Z,83.66
2016-12-22T10:31:54.435Z,83.66
2016-12-22T10:32:54.107Z,83.85
2016-12-22T10:33:54.427Z,83.47
2016-12-22T10:34:54.427Z,83.75
2016-12-22T10:35:54.427Z,83.56
2016-12-22T10:36:54.423Z,83.56
2016-12-22T10:37:54.087Z,83.66
2016-12-22T10:38:54.084Z,83.28
2016-12-22T10:39:54.080Z,82.81
2016-12-22T10:40:54.072Z,82.9
2016-12-22T10:41:54.396Z,82.52
2016-12-22T10:42:54.406Z,82.71
2016-12-22T10:43:54.388Z,82.62
2016-12-22T10:44:54.388Z,83.09
2016-12-22T10:45:54.060Z,82.71
2016-12-22T10:46:54.384Z,82.81
2016-12-22T10:47:54.373Z,82.71
2016-12-22T10:48:54.373Z,82.62
2016-12-22T10:49:54.373Z,82.62
2016-12-22T10:50:54.049Z,83.28
2016-12-22T10:51:54.361Z,82.9
2016-12-22T10:52:54.357Z,82.43
2016-12-22T10:53:54.025Z,83.09
2016-12-22T10:54:54.357Z,82.71
2016-12-22T10:55:54.021Z,82.62
2016-12-22T10:56:54.345Z,82.81
2016-12-22T10:57:54.341Z,83.09
2016-12-22T10:58:54.337Z,82.9
2016-12-22T10:59:54.006Z,83.18
2016-12-22T11:00:54.322Z,83
2016-12-22T11:01:54.321Z,82.52
2016-12-22T11:02:54.317Z,82.62
2016-12-22T11:03:54.314Z,82.33
2016-12-22T11:04:54.310Z,82.43
2016-12-22T11:05:53.978Z,82.52
2016-12-22T11:06:54.310Z,82.33
2016-12-22T11:07:54.302Z,82.05
2016-12-22T11:08:54.298Z,82.71
2016-12-22T11:09:54.291Z,81.57
2016-12-22T11:10:54.294Z,81.24
2016-12-22T11:11:54.291Z,81.62
2016-12-22T11:12:54.287Z,80.86
2016-12-22T11:13:54.287Z,81.05
2016-12-22T11:14:54.271Z,81.05
2016-12-22T11:15:53.947Z,80.72
2016-12-22T11:16:54.267Z,80.72
2016-12-22T11:17:53.935Z,80.67
2016-12-22T11:18:54.255Z,80.15
2016-12-22T11:19:53.931Z,80.29
2016-12-22T11:20:54.259Z,80.29
2016-12-22T11:21:54.256Z,80.29
2016-12-22T11:22:54.247Z,80.29
2016-12-22T11:23:54.239Z,80.38
2016-12-22T11:24:53.915Z,80.19
2016-12-22T11:25:54.238Z,80.38
2016-12-22T11:26:53.908Z,80.38
2016-12-22T11:27:53.908Z,80
2016-12-22T11:28:54.227Z,79.53
2016-12-22T11:29:54.216Z,79.63
2016-12-22T11:30:54.212Z,79.34
2016-12-22T11:31:53.908Z,79.25
2016-12-22T11:32:54.208Z,79.44
2016-12-22T11:33:53.880Z,80
2016-12-22T11:34:54.204Z,79.25
2016-12-22T11:35:54.204Z,79.34
2016-12-22T11:36:53.872Z,79.44
2016-12-22T11:37:54.192Z,79.53
2016-12-22T11:38:54.192Z,79.53
2016-12-22T11:39:53.861Z,79.53
2016-12-22T11:40:54.177Z,79.06
2016-12-22T11:41:53.848Z,79.15
2016-12-22T11:42:54.177Z,79.06
2016-12-22T11:43:54.172Z,78.96
2016-12-22T11:44:54.169Z,78.87
2016-12-22T11:45:54.169Z,78.43
2016-12-22T11:46:54.161Z,78.05
2016-12-22T11:47:54.157Z,78.15
2016-12-22T11:48:53.829Z,78.24
2016-12-22T11:49:53.829Z,78.05
2016-12-22T11:50:54.149Z,77.77
2016-12-22T11:51:54.145Z,77.2
2016-12-22T11:52:54.141Z,77.48
2016-12-22T11:53:54.134Z,76.92
2016-12-22T11:54:54.137Z,76.82
2016-12-22T11:55:53.805Z,76.73
2016-12-22T11:56:54.125Z,76.06
2016-12-22T11:57:54.122Z,75.59
2016-12-22T11:58:54.121Z,75.68
2016-12-22T11:59:54.105Z,76.21
2016-12-22T12:00:54.109Z,76.21
2016-12-22T12:01:54.109Z,76.12
2016-12-22T12:02:54.106Z,76.78
2016-12-22T12:03:54.102Z,76.5
2016-12-22T12:04:54.101Z,76.78
2016-12-22T12:05:54.093Z,77.06
2016-12-22T12:06:54.094Z,76.97
2016-12-22T12:07:53.762Z,76.59
2016-12-22T12:08:54.094Z,76.87
2016-12-22T12:09:54.090Z,76.5
2016-12-22T12:10:54.082Z,76.4
2016-12-22T12:11:54.078Z,77.16
2016-12-22T12:12:54.074Z,76.5
2016-12-22T12:13:54.066Z,76.68
2016-12-22T12:14:54.066Z,76.87
2016-12-22T12:15:54.067Z,76.4
2016-12-22T12:16:54.062Z,76.4
2016-12-22T12:17:54.054Z,76.5
2016-12-22T12:18:54.051Z,76.78
2016-12-22T12:19:54.051Z,76.5
2016-12-22T12:20:54.043Z,75.74
2016-12-22T12:21:54.043Z,76.68
2016-12-22T12:22:53.707Z,76.4
2016-12-22T12:23:54.039Z,76.59
2016-12-22T12:24:53.711Z,76.59
2016-12-22T12:25:54.023Z,77.06
2016-12-22T12:26:54.023Z,76.59
2016-12-22T12:27:54.035Z,77.06
2016-12-22T12:28:54.023Z,77.16
2016-12-22T12:29:54.015Z,76.59
2016-12-22T12:30:54.007Z,76.97
2016-12-22T12:31:53.683Z,76.78
2016-12-22T12:32:53.999Z,76.4
2016-12-22T12:33:54.003Z,76.87
2016-12-22T12:34:53.999Z,76.03
2016-12-22T12:35:53.991Z,75.96
2016-12-22T12:36:53.983Z,76.15
2016-12-22T12:37:53.991Z,76.34
2016-12-22T12:38:53.651Z,76.25
2016-12-22T12:39:53.655Z,75.93
2016-12-22T12:40:53.975Z,76.5
2016-12-22T12:41:53.971Z,76.59
2016-12-22T12:42:53.972Z,76.87
2016-12-22T12:43:53.969Z,76.03
2016-12-22T12:44:53.959Z,76.12
2016-12-22T12:45:53.963Z,76.25
2016-12-22T12:46:53.627Z,76.03
2016-12-22T12:47:53.623Z,76.21
2016-12-22T12:48:53.623Z,76.25
2016-12-22T12:49:53.940Z,76.06
2016-12-22T12:50:53.943Z,76.25
2016-12-22T12:51:53.935Z,76.25
2016-12-22T12:52:53.936Z,76.06
2016-12-22T12:53:53.940Z,76.34
2016-12-22T12:54:53.931Z,76.06
2016-12-22T12:55:53.600Z,75.78
2016-12-22T12:56:53.928Z,75.49
2016-12-22T12:57:53.923Z,75.21
2016-12-22T12:58:53.592Z,75.31
2016-12-22T12:59:53.916Z,74.92